createdAt,value
2018-04-21T00:00:24.858Z,20.75
2018-04-21T00:01:24.848Z,20.63
2018-04-21T00:02:24.841Z,20.71
2018-04-21T00:03:24.829Z,20.75
2018-04-21T00:04:24.816Z,20.68
2018-04-21T00:05:24.811Z,20.73
2018-04-21T00:06:24.804Z,20.67
2018-04-21T00:07:24.788Z,20.52
2018-04-21T00:08:24.787Z,20.50
2018-04-21T00:09:24.771Z,20.55
2018-04-21T00:10:24.760Z,20.36
2018-04-21T00:11:24.752Z,20.46
2018-04-21T00:12:24.741Z,20.44
2018-04-21T00:13:24.732Z,20.44
2018-04-21T00:14:24.722Z,20.46
2018-04-21T00:15:24.711Z,20.36
2018-04-21T00:16:24.852Z,20.26
2018-04-21T00:17:24.691Z,20.26
2018-04-21T00:18:24.743Z,20.26
2018-04-21T00:19:24.665Z,20.37
2018-04-21T00:20:24.660Z,20.39
2018-04-21T00:21:24.652Z,20.33
2018-04-21T00:22:24.657Z,20.32
2018-04-21T00:23:24.631Z,20.34
2018-04-21T00:24:24.620Z,20.23
2018-04-21T00:25:24.612Z,20.30
2018-04-21T00:26:24.651Z,20.26
2018-04-21T00:27:24.592Z,20.30
2018-04-21T00:28:24.578Z,20.23
2018-04-21T00:29:24.572Z,20.27
2018-04-21T00:30:24.561Z,20.22
2018-04-21T00:31:24.552Z,20.26
2018-04-21T00:32:24.536Z,20.15
2018-04-21T00:33:24.530Z,20.12
2018-04-21T00:34:24.517Z,20.12
2018-04-21T00:35:24.508Z,20.07
2018-04-21T00:36:24.502Z,19.94
2018-04-21T00:37:24.487Z,19.89
2018-04-21T00:38:24.477Z,19.99
2018-04-21T00:39:24.473Z,19.97
2018-04-21T00:40:24.463Z,19.94
2018-04-21T00:41:24.449Z,20.05
2018-04-21T00:42:24.434Z,19.93
2018-04-21T00:43:24.423Z,19.78
2018-04-21T00:44:24.413Z,19.84
2018-04-21T00:45:24.415Z,19.77
2018-04-21T00:46:24.394Z,19.72
2018-04-21T00:47:24.381Z,19.67
2018-04-21T00:48:24.377Z,19.63
2018-04-21T00:49:24.364Z,19.67
2018-04-21T00:50:24.368Z,19.75
2018-04-21T00:51:24.342Z,19.74
2018-04-21T00:52:24.335Z,19.86
2018-04-21T00:53:24.333Z,19.79
2018-04-21T00:54:24.311Z,19.81
2018-04-21T00:55:24.317Z,19.93
2018-04-21T00:56:24.324Z,19.87
2018-04-21T00:57:24.278Z,19.82
2018-04-21T00:58:24.272Z,19.68
2018-04-21T00:59:24.259Z,19.63
2018-04-21T01:00:24.247Z,19.67
2018-04-21T01:01:24.236Z,19.59
2018-04-21T01:02:24.224Z,19.63
2018-04-21T01:03:24.222Z,19.67
2018-04-21T01:04:24.205Z,19.67
2018-04-21T01:05:24.193Z,19.64
2018-04-21T01:06:24.183Z,19.63
2018-04-21T01:07:24.176Z,19.63
2018-04-21T01:08:24.161Z,19.52
2018-04-21T01:09:24.158Z,19.53
2018-04-21T01:10:24.146Z,19.47
2018-04-21T01:11:24.136Z,19.47
2018-04-21T01:12:24.119Z,19.52
2018-04-21T01:13:24.112Z,19.45
2018-04-21T01:14:24.102Z,19.41
2018-04-21T01:15:24.088Z,19.39
2018-04-21T01:16:24.084Z,19.37
2018-04-21T01:17:24.072Z,19.38
2018-04-21T01:18:24.060Z,19.24
2018-04-21T01:19:24.041Z,19.22
2018-04-21T01:20:24.035Z,19.19
2018-04-21T01:21:24.022Z,19.08
2018-04-21T01:22:24.013Z,19.09
2018-04-21T01:23:24.003Z,19.05
2018-04-21T01:24:23.994Z,19.07
2018-04-21T01:25:23.981Z,19.00
2018-04-21T01:26:23.974Z,19.00
2018-04-21T01:27:23.966Z,19.08
2018-04-21T01:28:23.948Z,19.04
2018-04-21T01:29:23.941Z,19.05
2018-04-21T01:30:23.926Z,18.94
2018-04-21T01:31:23.917Z,19.04
2018-04-21T01:32:23.909Z,18.96
2018-04-21T01:33:23.896Z,18.98
2018-04-21T01:34:23.884Z,19.13
2018-04-21T01:35:23.872Z,19.07
2018-04-21T01:36:23.864Z,19.04
2018-04-21T01:37:23.854Z,19.00
2018-04-21T01:38:23.841Z,18.94
2018-04-21T01:39:23.835Z,19.01
2018-04-21T01:40:23.818Z,19.05
2018-04-21T01:41:23.810Z,18.93
2018-04-21T01:42:23.799Z,18.94
2018-04-21T01:43:23.793Z,18.91
2018-04-21T01:44:23.780Z,18.97
2018-04-21T01:45:23.764Z,18.93
2018-04-21T01:46:23.752Z,18.97
2018-04-21T01:47:23.743Z,19.05
2018-04-21T01:48:23.734Z,18.91
2018-04-21T01:49:23.723Z,18.97
2018-04-21T01:50:23.710Z,18.78
2018-04-21T01:51:23.707Z,18.86
2018-04-21T01:52:23.685Z,18.85
2018-04-21T01:53:23.675Z,18.83
2018-04-21T01:54:23.665Z,18.75
2018-04-21T01:55:23.655Z,18.68
2018-04-21T01:56:23.641Z,18.67
2018-04-21T01:57:23.630Z,18.60
2018-04-21T01:58:23.622Z,18.66
2018-04-21T01:59:23.605Z,18.57
2018-04-21T02:00:23.598Z,18.52
2018-04-21T02:01:23.590Z,18.51
2018-04-21T02:02:23.576Z,18.39
2018-04-21T02:03:23.569Z,18.49
2018-04-21T02:04:23.560Z,18.41
2018-04-21T02:05:23.542Z,18.42
2018-04-21T02:06:23.629Z,18.42
2018-04-21T02:07:23.521Z,18.38
2018-04-21T02:08:23.512Z,18.23
2018-04-21T02:09:23.497Z,18.20
2018-04-21T02:10:23.588Z,18.03
2018-04-21T02:11:23.476Z,17.96
2018-04-21T02:12:23.468Z,17.87
2018-04-21T02:13:23.456Z,17.87
2018-04-21T02:14:23.443Z,17.86
2018-04-21T02:15:23.427Z,17.88
2018-04-21T02:16:23.422Z,17.93
2018-04-21T02:17:23.406Z,17.97
2018-04-21T02:18:23.447Z,18.01
2018-04-21T02:19:23.380Z,18.05
2018-04-21T02:20:23.392Z,17.86
2018-04-21T02:21:23.367Z,17.93
2018-04-21T02:22:23.350Z,17.90
2018-04-21T02:23:23.341Z,17.83
2018-04-21T02:24:23.326Z,17.88
2018-04-21T02:25:23.321Z,17.87
2018-04-21T02:26:23.301Z,17.87
2018-04-21T02:27:23.291Z,17.84
2018-04-21T02:28:23.326Z,17.90
2018-04-21T02:29:23.272Z,17.90
2018-04-21T02:30:23.259Z,17.78
2018-04-21T02:31:23.242Z,17.83
2018-04-21T02:32:23.231Z,17.79
2018-04-21T02:33:23.223Z,17.71
2018-04-21T02:34:23.210Z,17.79
2018-04-21T02:35:23.202Z,17.81
2018-04-21T02:36:23.253Z,17.83
2018-04-21T02:37:23.178Z,17.73
2018-04-21T02:38:23.163Z,17.66
2018-04-21T02:39:23.153Z,17.66
2018-04-21T02:40:23.141Z,17.69
2018-04-21T02:41:23.128Z,17.71
2018-04-21T02:42:23.117Z,17.78
2018-04-21T02:44:23.102Z,17.71
2018-04-21T02:45:23.093Z,17.76
2018-04-21T02:46:23.075Z,17.84
2018-04-21T02:47:23.064Z,17.84
2018-04-21T02:48:23.048Z,17.83
2018-04-21T02:49:23.043Z,17.73
2018-04-21T02:50:23.021Z,17.72
2018-04-21T02:51:23.013Z,17.72
2018-04-21T02:52:23.003Z,17.73
2018-04-21T02:53:22.985Z,17.71
2018-04-21T02:54:22.975Z,17.59
2018-04-21T02:55:22.967Z,17.57
2018-04-21T02:56:22.955Z,17.53
2018-04-21T02:57:22.941Z,17.46
2018-04-21T02:58:22.928Z,17.50
2018-04-21T02:59:22.916Z,17.49
2018-04-21T03:00:22.910Z,17.47
2018-04-21T03:01:22.892Z,17.49
2018-04-21T03:02:22.879Z,17.38
2018-04-21T03:03:22.996Z,17.34
2018-04-21T03:04:22.859Z,17.37
2018-04-21T03:05:22.847Z,17.37
2018-04-21T03:06:22.834Z,17.38
2018-04-21T03:07:22.820Z,17.34
2018-04-21T03:08:22.810Z,17.38
2018-04-21T03:09:22.802Z,17.35
2018-04-21T03:10:22.788Z,17.31
2018-04-21T03:11:22.780Z,17.35
2018-04-21T03:12:22.760Z,17.35
2018-04-21T03:13:22.751Z,17.34
2018-04-21T03:14:22.749Z,17.28
2018-04-21T03:15:22.724Z,17.19
2018-04-21T03:16:22.719Z,17.17
2018-04-21T03:17:22.704Z,17.12
2018-04-21T03:18:22.691Z,17.12
2018-04-21T03:19:22.753Z,17.13
2018-04-21T03:20:22.666Z,17.07
2018-04-21T03:21:22.662Z,17.06
2018-04-21T03:22:22.650Z,17.09
2018-04-21T03:23:22.631Z,17.17
2018-04-21T03:24:22.617Z,17.16
2018-04-21T03:25:22.610Z,17.13
2018-04-21T03:26:22.595Z,17.19
2018-04-21T03:27:22.588Z,17.07
2018-04-21T03:28:22.572Z,17.13
2018-04-21T03:29:22.560Z,17.10
2018-04-21T03:30:22.545Z,17.04
2018-04-21T03:31:22.546Z,17.04
2018-04-21T03:32:22.519Z,16.94
2018-04-21T03:33:22.521Z,16.97
2018-04-21T03:34:22.499Z,16.90
2018-04-21T03:35:22.490Z,16.83
2018-04-21T03:36:22.474Z,16.90
2018-04-21T03:37:22.464Z,16.82
2018-04-21T03:38:22.448Z,16.74
2018-04-21T03:39:22.442Z,16.74
2018-04-21T03:40:22.431Z,16.70
2018-04-21T03:41:22.412Z,16.64
2018-04-21T03:42:22.402Z,16.67
2018-04-21T03:43:22.393Z,16.74
2018-04-21T03:44:22.386Z,16.70
2018-04-21T03:45:22.368Z,16.76
2018-04-21T03:46:22.353Z,16.82
2018-04-21T03:47:22.340Z,16.94
2018-04-21T03:48:22.330Z,16.97
2018-04-21T03:49:22.313Z,16.94
2018-04-21T03:50:22.309Z,16.91
2018-04-21T03:51:22.288Z,16.92
2018-04-21T03:52:22.277Z,16.97
2018-04-21T03:53:22.275Z,16.92
2018-04-21T03:54:22.256Z,16.91
2018-04-21T03:55:22.240Z,16.82
2018-04-21T03:56:22.230Z,16.70
2018-04-21T03:57:22.213Z,16.69
2018-04-21T03:58:22.212Z,16.70
2018-04-21T03:59:22.193Z,16.74
2018-04-21T04:00:22.178Z,16.72
2018-04-21T04:01:22.169Z,16.76
2018-04-21T04:02:22.156Z,16.76
2018-04-21T04:03:22.146Z,16.70
2018-04-21T04:04:22.129Z,16.88
2018-04-21T04:05:22.118Z,16.73
2018-04-21T04:06:22.110Z,16.76
2018-04-21T04:07:22.098Z,16.64
2018-04-21T04:08:22.080Z,16.58
2018-04-21T04:09:22.070Z,16.51
2018-04-21T04:10:22.059Z,16.54
2018-04-21T04:11:22.050Z,16.51
2018-04-21T04:12:22.039Z,16.44
2018-04-21T04:13:22.017Z,16.18
2018-04-21T04:14:22.018Z,16.21
2018-04-21T04:15:22.001Z,16.09
2018-04-21T04:16:21.984Z,16.05
2018-04-21T04:17:21.970Z,15.96
2018-04-21T04:18:21.957Z,15.95
2018-04-21T04:19:21.945Z,15.88
2018-04-21T04:20:21.945Z,15.98
2018-04-21T04:21:21.922Z,16.03
2018-04-21T04:22:21.909Z,15.96
2018-04-21T04:23:21.898Z,16.03
2018-04-21T04:24:21.937Z,15.98
2018-04-21T04:25:21.869Z,16.02
2018-04-21T04:26:21.938Z,16.00
2018-04-21T04:27:21.843Z,15.98
2018-04-21T04:28:21.883Z,16.06
2018-04-21T04:29:21.819Z,16.13
2018-04-21T04:30:21.856Z,16.09
2018-04-21T04:31:21.793Z,16.14
2018-04-21T04:32:21.785Z,16.10
2018-04-21T04:33:21.768Z,16.22
2018-04-21T04:34:21.810Z,16.25
2018-04-21T04:35:21.741Z,16.24
2018-04-21T04:36:21.730Z,16.28
2018-04-21T04:37:21.720Z,16.25
2018-04-21T04:38:21.761Z,16.16
2018-04-21T04:39:21.691Z,16.10
2018-04-21T04:40:21.680Z,16.16
2018-04-21T04:41:21.662Z,16.09
2018-04-21T04:42:21.650Z,16.06
2018-04-21T04:43:21.636Z,16.06
2018-04-21T04:44:21.631Z,16.06
2018-04-21T04:45:21.610Z,16.05
2018-04-21T04:46:21.599Z,16.02
2018-04-21T04:47:21.593Z,16.06
2018-04-21T04:48:21.580Z,15.99
2018-04-21T04:49:21.559Z,16.06
2018-04-21T04:50:21.550Z,16.06
2018-04-21T04:51:21.539Z,15.90
2018-04-21T04:52:21.535Z,15.98
2018-04-21T04:53:21.507Z,15.98
2018-04-21T04:54:21.501Z,15.93
2018-04-21T04:55:21.489Z,15.98
2018-04-21T04:56:21.471Z,15.98
2018-04-21T04:57:21.462Z,15.99
2018-04-21T04:58:21.463Z,16.03
2018-04-21T04:59:21.430Z,15.87
2018-04-21T05:00:21.422Z,15.93
2018-04-21T05:01:21.412Z,15.80
2018-04-21T05:02:21.397Z,15.68
2018-04-21T05:03:21.386Z,15.69
2018-04-21T05:04:21.371Z,15.73
2018-04-21T05:05:21.357Z,15.81
2018-04-21T05:06:21.342Z,15.81
2018-04-21T05:07:21.332Z,15.85
2018-04-21T05:08:21.322Z,15.87
2018-04-21T05:09:21.307Z,15.96
2018-04-21T05:10:21.291Z,15.91
2018-04-21T05:11:21.281Z,15.98
2018-04-21T05:12:21.280Z,15.96
2018-04-21T05:13:21.250Z,15.93
2018-04-21T05:14:21.238Z,15.96
2018-04-21T05:15:21.225Z,15.98
2018-04-21T05:16:21.226Z,15.91
2018-04-21T05:17:21.195Z,15.98
2018-04-21T05:18:21.190Z,15.87
2018-04-21T05:19:21.172Z,15.93
2018-04-21T05:20:21.161Z,15.73
2018-04-21T05:21:21.159Z,15.83
2018-04-21T05:22:21.137Z,15.87
2018-04-21T05:23:21.121Z,15.84
2018-04-21T05:24:21.112Z,15.93
2018-04-21T05:25:21.102Z,15.98
2018-04-21T05:26:21.084Z,15.90
2018-04-21T05:27:21.072Z,16.02
2018-04-21T05:28:21.060Z,15.91
2018-04-21T05:29:21.042Z,15.98
2018-04-21T05:30:21.030Z,16.03
2018-04-21T05:31:21.014Z,16.05
2018-04-21T05:32:21.009Z,16.21
2018-04-21T05:33:20.992Z,16.29
2018-04-21T05:34:20.977Z,16.18
2018-04-21T05:35:20.971Z,16.34
2018-04-21T05:36:20.953Z,16.37
2018-04-21T05:37:20.944Z,16.49
2018-04-21T05:38:20.934Z,16.49
2018-04-21T05:39:20.918Z,16.51
2018-04-21T05:40:20.902Z,16.51
2018-04-21T05:41:20.891Z,16.67
2018-04-21T05:42:20.876Z,16.64
2018-04-21T05:43:20.862Z,16.77
2018-04-21T05:44:20.851Z,16.77
2018-04-21T05:45:20.839Z,16.80
2018-04-21T05:46:20.829Z,16.82
2018-04-21T05:47:20.813Z,16.88
2018-04-21T05:48:20.799Z,16.84
2018-04-21T05:49:20.798Z,16.74
2018-04-21T05:50:20.773Z,16.74
2018-04-21T05:51:20.768Z,16.79
2018-04-21T05:52:20.752Z,16.67
2018-04-21T05:53:20.743Z,16.64
2018-04-21T05:54:20.726Z,16.65
2018-04-21T05:55:20.713Z,16.73
2018-04-21T05:56:20.703Z,16.72
2018-04-21T05:57:20.692Z,16.57
2018-04-21T05:58:20.673Z,16.58
2018-04-21T05:59:20.660Z,16.57
2018-04-21T06:00:20.646Z,16.49
2018-04-21T06:01:20.637Z,16.54
2018-04-21T06:02:20.628Z,16.57
2018-04-21T06:03:20.611Z,16.52
2018-04-21T06:04:20.607Z,16.55
2018-04-21T06:05:20.592Z,16.64
2018-04-21T06:06:20.572Z,16.67
2018-04-21T06:07:20.564Z,16.72
2018-04-21T06:08:20.553Z,16.82
2018-04-21T06:09:20.543Z,16.70
2018-04-21T06:10:20.521Z,16.80
2018-04-21T06:11:20.510Z,16.84
2018-04-21T06:12:20.503Z,16.90
2018-04-21T06:13:20.494Z,16.97
2018-04-21T06:14:20.474Z,16.88
2018-04-21T06:15:20.463Z,16.83
2018-04-21T06:16:20.458Z,16.76
2018-04-21T06:17:20.434Z,16.69
2018-04-21T06:18:20.432Z,16.64
2018-04-21T06:19:20.415Z,16.55
2018-04-21T06:20:20.439Z,16.67
2018-04-21T06:21:20.383Z,16.65
2018-04-21T06:22:20.375Z,16.61
2018-04-21T06:23:20.359Z,16.62
2018-04-21T06:24:20.352Z,16.77
2018-04-21T06:25:20.332Z,16.80
2018-04-21T06:26:20.333Z,16.72
2018-04-21T06:27:20.316Z,16.91
2018-04-21T06:28:20.303Z,16.99
2018-04-21T06:29:20.289Z,16.91
2018-04-21T06:30:20.277Z,16.91
2018-04-21T06:31:20.268Z,16.92
2018-04-21T06:32:20.254Z,16.92
2018-04-21T06:33:20.234Z,17.04
2018-04-21T06:34:20.224Z,17.22
2018-04-21T06:35:20.212Z,17.19
2018-04-21T06:36:20.197Z,17.34
2018-04-21T06:37:20.185Z,17.38
2018-04-21T06:38:20.175Z,17.46
2018-04-21T06:39:20.165Z,17.46
2018-04-21T06:40:20.153Z,17.50
2018-04-21T06:41:20.142Z,17.59
2018-04-21T06:42:20.292Z,17.65
2018-04-21T06:43:20.124Z,17.56
2018-04-21T06:44:20.108Z,17.53
2018-04-21T06:45:20.102Z,17.54
2018-04-21T06:46:20.084Z,17.59
2018-04-21T06:47:20.065Z,17.65
2018-04-21T06:48:20.053Z,17.69
2018-04-21T06:49:20.039Z,17.72
2018-04-21T06:50:20.032Z,17.78
2018-04-21T06:51:20.021Z,17.68
2018-04-21T06:52:20.157Z,17.62
2018-04-21T06:53:19.995Z,17.71
2018-04-21T06:54:20.084Z,17.72
2018-04-21T06:55:19.982Z,17.88
2018-04-21T06:56:19.964Z,17.96
2018-04-21T06:57:19.945Z,17.99
2018-04-21T06:58:20.056Z,18.02
2018-04-21T06:59:19.923Z,18.13
2018-04-21T07:00:19.912Z,18.17
2018-04-21T07:01:19.903Z,18.24
2018-04-21T07:02:19.884Z,18.30
2018-04-21T07:03:19.873Z,18.34
2018-04-21T07:04:19.863Z,18.30
2018-04-21T07:05:19.858Z,18.27
2018-04-21T07:06:19.838Z,18.18
2018-04-21T07:07:19.838Z,18.15
2018-04-21T07:08:19.817Z,17.97
2018-04-21T07:09:19.818Z,18.02
2018-04-21T07:10:19.793Z,18.06
2018-04-21T07:11:19.786Z,18.03
2018-04-21T07:12:19.773Z,18.18
2018-04-21T07:13:19.759Z,18.12
2018-04-21T07:14:19.745Z,18.18
2018-04-21T07:15:19.733Z,18.33
2018-04-21T07:16:19.720Z,18.28
2018-04-21T07:17:19.712Z,18.46
2018-04-21T07:18:19.700Z,18.60
2018-04-21T07:19:19.730Z,18.63
2018-04-21T07:20:19.672Z,18.71
2018-04-21T07:21:19.662Z,18.79
2018-04-21T07:22:19.653Z,18.88
2018-04-21T07:23:19.646Z,18.97
2018-04-21T07:24:19.632Z,18.93
2018-04-21T07:25:19.623Z,18.96
2018-04-21T07:26:19.614Z,18.98
2018-04-21T07:27:19.596Z,19.04
2018-04-21T07:28:19.582Z,18.94
2018-04-21T07:29:19.576Z,19.09
2018-04-21T07:30:19.562Z,19.12
2018-04-21T07:31:19.553Z,19.17
2018-04-21T07:32:19.539Z,19.13
2018-04-21T07:33:19.532Z,19.26
2018-04-21T07:34:19.528Z,19.31
2018-04-21T07:35:19.514Z,19.31
2018-04-21T07:36:19.495Z,19.34
2018-04-21T07:37:19.486Z,19.39
2018-04-21T07:38:19.476Z,19.49
2018-04-21T07:39:19.464Z,19.52
2018-04-21T07:40:19.454Z,19.53
2018-04-21T07:41:19.470Z,19.54
2018-04-21T07:42:19.432Z,19.63
2018-04-21T07:43:19.415Z,19.74
2018-04-21T07:44:19.413Z,19.75
2018-04-21T07:45:19.395Z,19.62
2018-04-21T07:46:19.398Z,19.49
2018-04-21T07:47:19.372Z,19.53
2018-04-21T07:48:19.361Z,19.63
2018-04-21T07:49:19.355Z,19.67
2018-04-21T07:50:19.346Z,19.82
2018-04-21T07:51:19.342Z,19.74
2018-04-21T07:52:19.323Z,19.82
2018-04-21T07:53:19.311Z,19.86
2018-04-21T07:54:19.301Z,19.68
2018-04-21T07:55:19.292Z,19.81
2018-04-21T07:56:19.284Z,19.82
2018-04-21T07:57:19.272Z,19.86
2018-04-21T07:58:19.265Z,19.92
2018-04-21T07:59:19.242Z,19.87
2018-04-21T08:00:19.237Z,19.90
2018-04-21T08:01:19.222Z,20.05
2018-04-21T08:02:19.212Z,20.11
2018-04-21T08:03:19.204Z,20.15
2018-04-21T08:04:19.191Z,20.26
2018-04-21T08:05:19.183Z,20.27
2018-04-21T08:06:19.177Z,20.33
2018-04-21T08:07:19.163Z,20.53
2018-04-21T08:08:19.163Z,20.55
2018-04-21T08:09:19.139Z,20.58
2018-04-21T08:10:19.134Z,20.55
2018-04-21T08:11:19.122Z,20.58
2018-04-21T08:12:19.120Z,20.68
2018-04-21T08:13:19.114Z,21.77
2018-04-21T08:14:19.091Z,23.11
2018-04-21T08:15:19.095Z,24.06
2018-04-21T08:16:19.071Z,24.62
2018-04-21T08:17:19.066Z,25.09
2018-04-21T08:18:19.084Z,25.45
2018-04-21T08:19:19.051Z,25.88
2018-04-21T08:20:19.043Z,26.21
2018-04-21T08:21:19.042Z,26.52
2018-04-21T08:22:19.033Z,26.76
2018-04-21T08:23:19.027Z,27.22
2018-04-21T08:24:19.032Z,27.37
2018-04-21T08:25:19.020Z,27.70
2018-04-21T08:26:19.015Z,27.68
2018-04-21T08:27:19.020Z,27.93
2018-04-21T08:28:19.011Z,28.22
2018-04-21T08:29:19.012Z,28.37
2018-04-21T08:30:19.003Z,28.62
2018-04-21T08:31:19.017Z,28.66
2018-04-21T08:32:19.084Z,28.71
2018-04-21T08:33:18.998Z,28.84
2018-04-21T08:34:19.004Z,29.02
2018-04-21T08:35:19.006Z,29.03
2018-04-21T08:36:19.056Z,29.17
2018-04-21T08:37:18.996Z,29.19
2018-04-21T08:38:19.054Z,29.25
2018-04-21T08:39:18.997Z,29.25
2018-04-21T08:40:19.047Z,29.17
2018-04-21T08:41:18.998Z,28.96
2018-04-21T08:42:19.002Z,29.21
2018-04-21T08:43:19.006Z,29.49
2018-04-21T08:44:19.004Z,29.70
2018-04-21T08:45:19.008Z,29.89
2018-04-21T08:46:19.005Z,29.70
2018-04-21T08:47:19.011Z,29.80
2018-04-21T08:48:19.010Z,29.93
2018-04-21T08:49:19.066Z,29.87
2018-04-21T08:50:19.020Z,29.95
2018-04-21T08:51:19.018Z,30.00
2018-04-21T08:52:19.018Z,30.00
2018-04-21T08:53:19.080Z,29.98
2018-04-21T08:54:19.025Z,30.32
2018-04-21T08:55:19.026Z,30.51
2018-04-21T08:56:19.064Z,30.64
2018-04-21T08:57:19.040Z,30.43
2018-04-21T08:58:19.037Z,29.95
2018-04-21T08:59:19.096Z,30.28
2018-04-21T09:00:19.035Z,30.35
2018-04-21T09:01:19.042Z,30.43
2018-04-21T09:02:19.051Z,30.67
2018-04-21T09:03:19.154Z,30.30
2018-04-21T09:04:19.046Z,30.58
2018-04-21T09:05:19.049Z,30.74
2018-04-21T09:06:19.059Z,30.67
2018-04-21T09:07:19.054Z,30.77
2018-04-21T09:08:19.057Z,30.74
2018-04-21T09:09:19.057Z,30.75
2018-04-21T09:10:19.086Z,30.88
2018-04-21T09:11:19.060Z,31.12
2018-04-21T09:12:19.061Z,31.33
2018-04-21T09:13:19.063Z,31.37
2018-04-21T09:14:19.082Z,31.34
2018-04-21T09:15:19.067Z,31.54
2018-04-21T09:16:19.069Z,31.51
2018-04-21T09:17:19.075Z,31.67
2018-04-21T09:18:19.075Z,31.37
2018-04-21T09:19:19.072Z,31.39
2018-04-21T09:20:19.076Z,31.63
2018-04-21T09:21:19.078Z,31.39
2018-04-21T09:22:19.074Z,31.64
2018-04-21T09:23:19.073Z,31.46
2018-04-21T09:24:19.081Z,31.42
2018-04-21T09:25:19.073Z,31.54
2018-04-21T09:26:19.132Z,31.81
2018-04-21T09:27:19.077Z,32.02
2018-04-21T09:28:19.132Z,32.19
2018-04-21T09:29:19.073Z,32.21
2018-04-21T09:30:19.076Z,32.17
2018-04-21T09:31:19.076Z,32.33
2018-04-21T09:32:19.087Z,32.21
2018-04-21T09:33:19.078Z,31.76
2018-04-21T09:34:19.081Z,31.79
2018-04-21T09:35:19.078Z,32.06
2018-04-21T09:36:19.076Z,32.08
2018-04-21T09:37:19.072Z,32.09
2018-04-21T09:38:19.073Z,32.13
2018-04-21T09:39:19.072Z,32.17
2018-04-21T09:40:19.074Z,31.84
2018-04-21T09:41:19.072Z,32.26
2018-04-21T09:42:19.073Z,32.48
2018-04-21T09:43:19.073Z,32.05
2018-04-21T09:44:19.069Z,32.26
2018-04-21T09:45:19.088Z,32.43
2018-04-21T09:46:19.066Z,31.95
2018-04-21T09:47:19.061Z,32.23
2018-04-21T09:48:19.062Z,32.42
2018-04-21T09:49:19.164Z,32.45
2018-04-21T09:50:19.060Z,32.57
2018-04-21T09:51:19.205Z,32.85
2018-04-21T09:52:19.058Z,33.03
2018-04-21T09:53:19.059Z,33.04
2018-04-21T09:54:19.053Z,33.16
2018-04-21T09:55:19.055Z,33.03
2018-04-21T09:56:19.054Z,32.94
2018-04-21T09:57:19.048Z,32.88
2018-04-21T09:58:19.051Z,32.80
2018-04-21T09:59:19.120Z,32.68
2018-04-21T10:00:19.043Z,32.76
2018-04-21T10:01:19.037Z,32.73
2018-04-21T10:02:19.038Z,31.81
2018-04-21T10:03:19.031Z,31.89
2018-04-21T10:04:19.030Z,31.98
2018-04-21T10:05:19.080Z,31.89
2018-04-21T10:06:19.024Z,32.01
2018-04-21T10:07:19.023Z,32.04
2018-04-21T10:08:19.022Z,32.06
2018-04-21T10:09:19.025Z,32.04
2018-04-21T10:10:19.025Z,31.76
2018-04-21T10:11:19.021Z,31.10
2018-04-21T10:12:19.013Z,30.88
2018-04-21T10:13:19.012Z,30.96
2018-04-21T10:14:19.008Z,30.95
2018-04-21T10:15:19.013Z,31.01
2018-04-21T10:16:19.003Z,30.70
2018-04-21T10:17:19.000Z,30.51
2018-04-21T10:18:19.057Z,30.37
2018-04-21T10:19:18.996Z,30.33
2018-04-21T10:20:19.057Z,30.21
2018-04-21T10:21:18.983Z,30.08
2018-04-21T10:22:19.079Z,30.15
2018-04-21T10:23:18.973Z,30.22
2018-04-21T10:24:19.023Z,29.76
2018-04-21T10:25:18.965Z,29.99
2018-04-21T10:26:18.964Z,30.05
2018-04-21T10:27:18.963Z,30.07
2018-04-21T10:28:18.959Z,29.99
2018-04-21T10:29:18.952Z,29.56
2018-04-21T10:30:18.952Z,29.58
2018-04-21T10:31:18.942Z,29.58
2018-04-21T10:32:18.941Z,29.71
2018-04-21T10:33:18.939Z,29.71
2018-04-21T10:34:18.932Z,29.73
2018-04-21T10:35:18.929Z,29.77
2018-04-21T10:36:18.926Z,29.41
2018-04-21T10:37:18.929Z,29.58
2018-04-21T10:38:18.924Z,29.61
2018-04-21T10:39:18.913Z,29.55
2018-04-21T10:40:18.914Z,29.46
2018-04-21T10:41:18.907Z,29.34
2018-04-21T10:42:18.914Z,29.28
2018-04-21T10:43:18.897Z,29.34
2018-04-21T10:44:18.888Z,29.55
2018-04-21T10:45:18.998Z,29.52
2018-04-21T10:46:18.884Z,29.61
2018-04-21T10:47:18.886Z,29.71
2018-04-21T10:48:18.871Z,29.71
2018-04-21T10:49:18.869Z,29.76
2018-04-21T10:50:18.871Z,29.59
2018-04-21T10:51:18.861Z,29.40
2018-04-21T10:52:18.854Z,28.15
2018-04-21T10:53:18.853Z,27.60
2018-04-21T10:54:18.851Z,27.44
2018-04-21T10:55:18.842Z,27.79
2018-04-21T10:56:18.837Z,28.05
2018-04-21T10:57:18.832Z,28.17
2018-04-21T10:58:18.837Z,28.10
2018-04-21T10:59:18.824Z,27.64
2018-04-21T11:00:18.822Z,27.69
2018-04-21T11:01:18.818Z,27.98
2018-04-21T11:02:18.816Z,28.13
2018-04-21T11:03:18.808Z,28.47
2018-04-21T11:04:18.807Z,28.80
2018-04-21T11:05:18.801Z,29.06
2018-04-21T11:06:18.798Z,29.24
2018-04-21T11:07:18.786Z,29.21
2018-04-21T11:08:18.789Z,29.21
2018-04-21T11:09:18.780Z,29.29
2018-04-21T11:10:18.783Z,29.37
2018-04-21T11:11:18.788Z,29.29
2018-04-21T11:12:18.772Z,29.52
2018-04-21T11:13:18.765Z,29.62
2018-04-21T11:14:18.755Z,29.61
2018-04-21T11:15:18.751Z,29.78
2018-04-21T11:16:18.747Z,29.76
2018-04-21T11:17:18.750Z,29.70
2018-04-21T11:18:18.748Z,29.68
2018-04-21T11:19:18.745Z,29.74
2018-04-21T11:20:18.733Z,29.84
2018-04-21T11:21:18.726Z,29.56
2018-04-21T11:22:18.719Z,29.62
2018-04-21T11:23:18.715Z,29.66
2018-04-21T11:24:18.711Z,29.70
2018-04-21T11:25:18.707Z,29.65
2018-04-21T11:26:18.705Z,29.58
2018-04-21T11:27:18.699Z,29.62
2018-04-21T11:28:18.693Z,29.71
2018-04-21T11:29:18.687Z,29.74
2018-04-21T11:30:18.690Z,29.73
2018-04-21T11:31:18.691Z,29.70
2018-04-21T11:32:18.681Z,29.73
2018-04-21T11:33:18.672Z,29.56
2018-04-21T11:34:18.666Z,29.77
2018-04-21T11:35:18.661Z,29.66
2018-04-21T11:36:18.663Z,29.76
2018-04-21T11:37:18.705Z,29.63
2018-04-21T11:38:18.652Z,29.63
2018-04-21T11:39:18.649Z,29.63
2018-04-21T11:40:18.641Z,29.44
2018-04-21T11:41:18.655Z,29.58
2018-04-21T11:42:18.633Z,29.37
2018-04-21T11:43:18.646Z,29.34
2018-04-21T11:44:18.621Z,29.41
2018-04-21T11:45:18.676Z,29.37
2018-04-21T11:46:18.614Z,29.46
2018-04-21T11:47:18.613Z,28.98
2018-04-21T11:48:18.610Z,29.04
2018-04-21T11:49:18.645Z,29.10
2018-04-21T11:50:18.607Z,29.31
2018-04-21T11:51:18.596Z,29.37
2018-04-21T11:52:18.596Z,29.22
2018-04-21T11:53:18.584Z,29.33
2018-04-21T11:54:18.593Z,29.22
2018-04-21T11:55:18.583Z,29.06
2018-04-21T11:56:18.574Z,28.80
2018-04-21T11:57:18.582Z,28.96
2018-04-21T11:58:18.562Z,29.03
2018-04-21T11:59:18.563Z,28.75
2018-04-21T12:00:18.562Z,28.68
2018-04-21T12:01:18.555Z,28.86
2018-04-21T12:02:18.558Z,29.02
2018-04-21T12:03:18.541Z,29.10
2018-04-21T12:04:18.546Z,29.25
2018-04-21T12:05:18.573Z,29.33
2018-04-21T12:06:18.526Z,29.52
2018-04-21T12:07:18.520Z,29.70
2018-04-21T12:08:18.518Z,29.80
2018-04-21T12:09:18.512Z,29.78
2018-04-21T12:10:18.516Z,29.66
2018-04-21T12:11:18.501Z,29.76
2018-04-21T12:12:18.502Z,29.73
2018-04-21T12:13:18.495Z,29.86
2018-04-21T12:14:18.490Z,29.40
2018-04-21T12:15:18.492Z,28.81
2018-04-21T12:16:18.481Z,28.87
2018-04-21T12:17:18.483Z,28.49
2018-04-21T12:18:18.476Z,28.71
2018-04-21T12:19:18.482Z,28.56
2018-04-21T12:20:18.469Z,28.35
2018-04-21T12:21:18.462Z,28.24
2018-04-21T12:22:18.461Z,28.25
2018-04-21T12:23:18.452Z,28.13
2018-04-21T12:24:18.442Z,28.22
2018-04-21T12:25:18.446Z,28.47
2018-04-21T12:26:18.436Z,28.69
2018-04-21T12:27:18.436Z,28.71
2018-04-21T12:28:18.430Z,28.83
2018-04-21T12:29:18.421Z,28.96
2018-04-21T12:30:18.423Z,29.12
2018-04-21T12:31:18.414Z,29.27
2018-04-21T12:32:18.413Z,29.37
2018-04-21T12:33:18.404Z,29.55
2018-04-21T12:34:18.400Z,29.68
2018-04-21T12:35:18.394Z,29.71
2018-04-21T12:36:18.392Z,29.74
2018-04-21T12:37:18.391Z,29.71
2018-04-21T12:38:18.385Z,29.78
2018-04-21T12:39:18.374Z,29.84
2018-04-21T12:40:18.368Z,29.83
2018-04-21T12:41:18.370Z,29.76
2018-04-21T12:42:18.362Z,29.74
2018-04-21T12:43:18.358Z,29.87
2018-04-21T12:44:18.353Z,29.76
2018-04-21T12:45:18.358Z,29.87
2018-04-21T12:46:18.347Z,29.80
2018-04-21T12:47:18.339Z,29.63
2018-04-21T12:48:18.340Z,29.61
2018-04-21T12:49:18.339Z,29.56
2018-04-21T12:50:18.327Z,29.62
2018-04-21T12:51:18.324Z,29.18
2018-04-21T12:52:18.318Z,29.22
2018-04-21T12:53:18.313Z,29.34